sensor_id;sensor_type;location;lat;lon;timestamp;pressure;altitude;pressure_sealevel;temperature;humidity
61109;BME280;46995;55.740;37.402;2022-09-19T00:01:56;96907.91;;;13.73;91.06
61109;BME280;46995;55.740;37.402;2022-09-19T00:04:27;96897.75;;;13.70;91.27
61109;BME280;46995;55.740;37.402;2022-09-19T00:06:54;96894.00;;;13.77;91.21
61109;BME280;46995;55.740;37.402;2022-09-19T00:09:26;96905.44;;;13.78;91.23
61109;BME280;46995;55.740;37.402;2022-09-19T00:11:53;96893.97;;;13.84;91.09
61109;BME280;46995;55.740;37.402;2022-09-19T00:14:22;96890.28;;;13.85;91.04
61109;BME280;46995;55.740;37.402;2022-09-19T00:16:54;96891.84;;;13.92;90.96
61109;BME280;46995;55.740;37.402;2022-09-19T00:19:21;96868.41;;;13.89;90.56
61109;BME280;46995;55.740;37.402;2022-09-19T00:21:47;96859.63;;;13.89;90.52
61109;BME280;46995;55.740;37.402;2022-09-19T00:24:16;96859.22;;;13.92;90.54
61109;BME280;46995;55.740;37.402;2022-09-19T00:27:01;96866.06;;;13.99;90.49
61109;BME280;46995;55.740;37.402;2022-09-19T00:29:31;96873.97;;;14.06;90.32
61109;BME280;46995;55.740;37.402;2022-09-19T00:31:57;96850.44;;;13.91;90.17
61109;BME280;46995;55.740;37.402;2022-09-19T00:34:23;96864.00;;;14.02;90.32
61109;BME280;46995;55.740;37.402;2022-09-19T00:36:50;96866.56;;;14.08;90.28
61109;BME280;46995;55.740;37.402;2022-09-19T00:39:18;96865.19;;;14.06;90.30
61109;BME280;46995;55.740;37.402;2022-09-19T00:41:44;96851.31;;;14.04;89.92
61109;BME280;46995;55.740;37.402;2022-09-19T00:46:50;96847.13;;;14.14;89.93
61109;BME280;46995;55.740;37.402;2022-09-19T00:49:18;96818.22;;;14.06;89.79
61109;BME280;46995;55.740;37.402;2022-09-19T00:51:54;96835.63;;;14.20;89.69
61109;BME280;46995;55.740;37.402;2022-09-19T00:54:24;96825.47;;;14.17;89.55
61109;BME280;46995;55.740;37.402;2022-09-19T00:56:53;96819.72;;;14.20;89.52
61109;BME280;46995;55.740;37.402;2022-09-19T00:59:20;96831.56;;;14.36;89.52
61109;BME280;46995;55.740;37.402;2022-09-19T01:01:47;96825.31;;;14.30;89.25
61109;BME280;46995;55.740;37.402;2022-09-19T01:06:56;96823.44;;;14.37;89.47
61109;BME280;46995;55.740;37.402;2022-09-19T01:17:14;96814.59;;;14.44;89.48
61109;BME280;46995;55.740;37.402;2022-09-19T01:25:10;96806.72;;;14.30;89.50
61109;BME280;46995;55.740;37.402;2022-09-19T01:30:22;96811.31;;;14.41;89.30
61109;BME280;46995;55.740;37.402;2022-09-19T01:32:59;96818.41;;;14.48;89.25
61109;BME280;46995;55.740;37.402;2022-09-19T01:35:35;96816.91;;;14.52;89.25
61109;BME280;46995;55.740;37.402;2022-09-19T01:38:24;96809.56;;;14.54;89.32
61109;BME280;46995;55.740;37.402;2022-09-19T01:40:53;96795.75;;;14.45;88.89
61109;BME280;46995;55.740;37.402;2022-09-19T01:43:20;96788.84;;;14.44;88.74
61109;BME280;46995;55.740;37.402;2022-09-19T01:45:47;96802.59;;;14.53;88.49
61109;BME280;46995;55.740;37.402;2022-09-19T01:48:29;96786.19;;;14.44;88.59
61109;BME280;46995;55.740;37.402;2022-09-19T02:02:31;96780.75;;;14.51;88.67
61109;BME280;46995;55.740;37.402;2022-09-19T02:05:24;96782.03;;;14.48;88.62
61109;BME280;46995;55.740;37.402;2022-09-19T02:10:28;96776.00;;;14.41;88.65
61109;BME280;46995;55.740;37.402;2022-09-19T02:12:59;96753.06;;;14.28;88.61
61109;BME280;46995;55.740;37.402;2022-09-19T02:15:48;96757.88;;;14.38;88.64
61109;BME280;46995;55.740;37.402;2022-09-19T02:20:55;96788.44;;;14.40;88.48
61109;BME280;46995;55.740;37.402;2022-09-19T02:23:27;96773.78;;;14.38;88.61
61109;BME280;46995;55.740;37.402;2022-09-19T02:25:55;96777.84;;;14.40;88.42
61109;BME280;46995;55.740;37.402;2022-09-19T02:28:28;96780.63;;;14.46;88.39
61109;BME280;46995;55.740;37.402;2022-09-19T02:30:58;96782.25;;;14.47;88.50
61109;BME280;46995;55.740;37.402;2022-09-19T02:33:25;96763.53;;;14.41;88.32
61109;BME280;46995;55.740;37.402;2022-09-19T02:35:57;96768.69;;;14.55;88.34
61109;BME280;46995;55.740;37.402;2022-09-19T02:38:44;96756.31;;;14.49;88.22
61109;BME280;46995;55.740;37.402;2022-09-19T02:41:19;96760.13;;;14.53;87.85
61109;BME280;46995;55.740;37.402;2022-09-19T02:44:00;96756.50;;;14.47;87.69
61109;BME280;46995;55.740;37.402;2022-09-19T02:46:43;96714.69;;;14.24;87.59
61109;BME280;46995;55.740;37.402;2022-09-19T02:49:21;96744.94;;;14.41;87.39
61109;BME280;46995;55.740;37.402;2022-09-19T02:52:00;96739.41;;;14.25;87.75
61109;BME280;46995;55.740;37.402;2022-09-19T02:54:31;96747.59;;;14.23;87.73
61109;BME280;46995;55.740;37.402;2022-09-19T02:57:03;96734.47;;;14.10;87.86
61109;BME280;46995;55.740;37.402;2022-09-19T02:59:35;96746.72;;;14.11;87.78
61109;BME280;46995;55.740;37.402;2022-09-19T03:02:17;96743.78;;;14.01;87.97
61109;BME280;46995;55.740;37.402;2022-09-19T03:04:47;96741.94;;;13.83;88.09
61109;BME280;46995;55.740;37.402;2022-09-19T03:07:19;96747.09;;;13.78;88.39
61109;BME280;46995;55.740;37.402;2022-09-19T03:10:04;96736.25;;;13.62;88.54
61109;BME280;46995;55.740;37.402;2022-09-19T03:15:38;96723.41;;;13.40;88.74
61109;BME280;46995;55.740;37.402;2022-09-19T03:18:10;96753.91;;;13.49;88.73
61109;BME280;46995;55.740;37.402;2022-09-19T03:20:39;96722.28;;;13.30;89.07
61109;BME280;46995;55.740;37.402;2022-09-19T03:23:11;96726.66;;;13.42;88.81
61109;BME280;46995;55.740;37.402;2022-09-19T03:25:41;96721.34;;;13.42;88.27
61109;BME280;46995;55.740;37.402;2022-09-19T03:28:07;96739.25;;;13.47;88.53
61109;BME280;46995;55.740;37.402;2022-09-19T03:30:34;96711.66;;;13.30;88.42
61109;BME280;46995;55.740;37.402;2022-09-19T03:32:59;96739.59;;;13.50;88.44
61109;BME280;46995;55.740;37.402;2022-09-19T03:35:25;96747.81;;;13.67;88.19
61109;BME280;46995;55.740;37.402;2022-09-19T03:37:52;96727.19;;;13.69;87.47
61109;BME280;46995;55.740;37.402;2022-09-19T03:40:20;96738.63;;;13.88;87.02
61109;BME280;46995;55.740;37.402;2022-09-19T03:42:48;96717.84;;;13.85;86.28
61109;BME280;46995;55.740;37.402;2022-09-19T03:45:20;96721.25;;;13.92;85.73
61109;BME280;46995;55.740;37.402;2022-09-19T03:47:48;96708.84;;;13.86;84.85
61109;BME280;46995;55.740;37.402;2022-09-19T03:50:14;96726.84;;;14.02;84.27
61109;BME280;46995;55.740;37.402;2022-09-19T03:53:01;96706.22;;;13.86;83.48
61109;BME280;46995;55.740;37.402;2022-09-19T03:55:26;96750.06;;;14.07;83.14
61109;BME280;46995;55.740;37.402;2022-09-19T03:57:55;96729.56;;;13.95;82.79
61109;BME280;46995;55.740;37.402;2022-09-19T04:00:21;96733.84;;;13.96;80.80
61109;BME280;46995;55.740;37.402;2022-09-19T04:02:47;96721.31;;;13.85;80.77
61109;BME280;46995;55.740;37.402;2022-09-19T04:05:14;96733.97;;;13.83;79.55
61109;BME280;46995;55.740;37.402;2022-09-19T04:07:41;96753.88;;;13.92;78.88
61109;BME280;46995;55.740;37.402;2022-09-19T04:10:07;96755.19;;;13.83;76.96
61109;BME280;46995;55.740;37.402;2022-09-19T04:12:37;96746.72;;;13.75;76.45
61109;BME280;46995;55.740;37.402;2022-09-19T04:15:03;96725.63;;;13.62;75.49
61109;BME280;46995;55.740;37.402;2022-09-19T04:17:30;96723.28;;;13.53;75.11
61109;BME280;46995;55.740;37.402;2022-09-19T04:20:03;96740.81;;;13.54;74.44
61109;BME280;46995;55.740;37.402;2022-09-19T04:22:52;96759.28;;;13.61;74.07
61109;BME280;46995;55.740;37.402;2022-09-19T04:25:25;96748.63;;;13.49;73.76
61109;BME280;46995;55.740;37.402;2022-09-19T04:28:04;96766.66;;;13.59;74.03
61109;BME280;46995;55.740;37.402;2022-09-19T04:30:35;96749.03;;;13.46;73.86
61109;BME280;46995;55.740;37.402;2022-09-19T04:33:04;96768.56;;;13.52;73.12
61109;BME280;46995;55.740;37.402;2022-09-19T04:35:32;96753.16;;;13.42;72.86
61109;BME280;46995;55.740;37.402;2022-09-19T04:38:05;96765.38;;;13.43;72.89
61109;BME280;46995;55.740;37.402;2022-09-19T04:40:43;96767.38;;;13.48;73.13
61109;BME280;46995;55.740;37.402;2022-09-19T04:43:13;96756.25;;;13.39;73.30
61109;BME280;46995;55.740;37.402;2022-09-19T04:45:44;96773.06;;;13.51;72.83
61109;BME280;46995;55.740;37.402;2022-09-19T04:48:27;96742.69;;;13.29;71.99
61109;BME280;46995;55.740;37.402;2022-09-19T04:51:12;96763.88;;;13.29;72.12
61109;BME280;46995;55.740;37.402;2022-09-19T04:53:38;96757.78;;;13.29;71.62
61109;BME280;46995;55.740;37.402;2022-09-19T04:56:05;96759.69;;;13.15;70.75
61109;BME280;46995;55.740;37.402;2022-09-19T04:58:35;96736.34;;;12.99;71.06
61109;BME280;46995;55.740;37.402;2022-09-19T05:01:03;96770.09;;;13.10;71.35
61109;BME280;46995;55.740;37.402;2022-09-19T05:03:29;96739.69;;;12.88;71.85
61109;BME280;46995;55.740;37.402;2022-09-19T05:06:11;96737.22;;;12.93;71.56
61109;BME280;46995;55.740;37.402;2022-09-19T05:08:40;96743.28;;;13.00;71.89
61109;BME280;46995;55.740;37.402;2022-09-19T05:11:27;96745.78;;;12.95;71.96
61109;BME280;46995;55.740;37.402;2022-09-19T05:13:53;96758.00;;;12.96;72.41
61109;BME280;46995;55.740;37.402;2022-09-19T05:16:22;96758.19;;;12.94;72.48
61109;BME280;46995;55.740;37.402;2022-09-19T05:18:54;96731.03;;;12.74;72.60
61109;BME280;46995;55.740;37.402;2022-09-19T05:21:21;96722.56;;;12.65;72.12
61109;BME280;46995;55.740;37.402;2022-09-19T05:23:48;96749.91;;;12.84;72.56
61109;BME280;46995;55.740;37.402;2022-09-19T05:26:14;96751.91;;;12.89;72.25
61109;BME280;46995;55.740;37.402;2022-09-19T05:28:53;96752.78;;;12.83;72.19
61109;BME280;46995;55.740;37.402;2022-09-19T05:31:21;96741.44;;;12.76;72.12
61109;BME280;46995;55.740;37.402;2022-09-19T05:34:02;96719.81;;;12.47;72.28
61109;BME280;46995;55.740;37.402;2022-09-19T05:36:29;96756.50;;;12.75;73.46
61109;BME280;46995;55.740;37.402;2022-09-19T05:39:13;96760.94;;;12.81;72.51
61109;BME280;46995;55.740;37.402;2022-09-19T05:41:57;96731.66;;;12.76;72.24
61109;BME280;46995;55.740;37.402;2022-09-19T05:44:25;96728.50;;;12.61;72.14
61109;BME280;46995;55.740;37.402;2022-09-19T05:46:55;96759.94;;;12.82;72.29
61109;BME280;46995;55.740;37.402;2022-09-19T05:49:22;96738.16;;;12.73;71.91
61109;BME280;46995;55.740;37.402;2022-09-19T05:51:52;96749.53;;;12.81;71.75
61109;BME280;46995;55.740;37.402;2022-09-19T05:54:23;96726.72;;;12.80;71.67
61109;BME280;46995;55.740;37.402;2022-09-19T05:57:07;96753.88;;;13.00;71.42
61109;BME280;46995;55.740;37.402;2022-09-19T05:59:33;96740.47;;;12.95;70.98
61109;BME280;46995;55.740;37.402;2022-09-19T06:01:59;96759.50;;;13.10;71.03
61109;BME280;46995;55.740;37.402;2022-09-19T06:04:45;96760.31;;;13.17;71.14
61109;BME280;46995;55.740;37.402;2022-09-19T06:07:11;96761.50;;;13.21;70.70
61109;BME280;46995;55.740;37.402;2022-09-19T06:09:37;96742.44;;;13.06;70.65
61109;BME280;46995;55.740;37.402;2022-09-19T06:12:04;96751.41;;;13.05;71.22
61109;BME280;46995;55.740;37.402;2022-09-19T06:14:30;96740.47;;;12.95;71.57
61109;BME280;46995;55.740;37.402;2022-09-19T06:17:01;96749.19;;;13.02;71.46
61109;BME280;46995;55.740;37.402;2022-09-19T06:19:49;96747.72;;;13.06;71.19
61109;BME280;46995;55.740;37.402;2022-09-19T06:22:22;96736.03;;;12.89;71.49
61109;BME280;46995;55.740;37.402;2022-09-19T06:24:51;96747.34;;;13.02;71.35
61109;BME280;46995;55.740;37.402;2022-09-19T06:27:18;96742.31;;;12.94;71.31
61109;BME280;46995;55.740;37.402;2022-09-19T06:29:45;96744.22;;;12.87;71.90
61109;BME280;46995;55.740;37.402;2022-09-19T06:32:21;96746.38;;;12.65;72.69
61109;BME280;46995;55.740;37.402;2022-09-19T06:34:54;96772.56;;;12.42;73.52
61109;BME280;46995;55.740;37.402;2022-09-19T06:37:20;96760.06;;;12.18;74.42
61109;BME280;46995;55.740;37.402;2022-09-19T06:39:46;96765.22;;;12.00;75.23
61109;BME280;46995;55.740;37.402;2022-09-19T06:42:38;96783.91;;;12.05;76.10
61109;BME280;46995;55.740;37.402;2022-09-19T06:45:31;96775.97;;;12.11;76.56
61109;BME280;46995;55.740;37.402;2022-09-19T06:48:20;96777.19;;;12.09;77.03
61109;BME280;46995;55.740;37.402;2022-09-19T06:50:52;96778.56;;;12.24;76.71
61109;BME280;46995;55.740;37.402;2022-09-19T06:53:20;96788.09;;;12.25;76.60
61109;BME280;46995;55.740;37.402;2022-09-19T06:55:48;96785.25;;;12.27;75.42
61109;BME280;46995;55.740;37.402;2022-09-19T06:58:17;96791.34;;;12.34;75.80
61109;BME280;46995;55.740;37.402;2022-09-19T07:00:45;96770.75;;;12.36;75.06
61109;BME280;46995;55.740;37.402;2022-09-19T07:03:15;96767.88;;;12.44;73.94
61109;BME280;46995;55.740;37.402;2022-09-19T07:05:47;96785.22;;;12.40;73.74
61109;BME280;46995;55.740;37.402;2022-09-19T07:08:21;96788.47;;;12.36;73.24
61109;BME280;46995;55.740;37.402;2022-09-19T07:10:47;96773.88;;;12.20;73.66
61109;BME280;46995;55.740;37.402;2022-09-19T07:13:14;96788.63;;;12.03;73.91
61109;BME280;46995;55.740;37.402;2022-09-19T07:15:41;96798.38;;;11.96;74.09
61109;BME280;46995;55.740;37.402;2022-09-19T07:18:11;96797.78;;;11.94;73.50
61109;BME280;46995;55.740;37.402;2022-09-19T07:20:40;96775.59;;;11.95;73.36
61109;BME280;46995;55.740;37.402;2022-09-19T07:23:23;96804.06;;;12.06;72.91
61109;BME280;46995;55.740;37.402;2022-09-19T07:25:53;96823.38;;;12.06;72.48
61109;BME280;46995;55.740;37.402;2022-09-19T07:28:21;96800.78;;;12.10;71.51
61109;BME280;46995;55.740;37.402;2022-09-19T07:30:49;96787.34;;;12.18;71.44
61109;BME280;46995;55.740;37.402;2022-09-19T07:33:17;96792.38;;;12.33;71.16
61109;BME280;46995;55.740;37.402;2022-09-19T07:35:46;96803.06;;;12.51;70.46
61109;BME280;46995;55.740;37.402;2022-09-19T07:38:15;96791.97;;;12.29;70.56
61109;BME280;46995;55.740;37.402;2022-09-19T07:41:01;96829.66;;;12.18;71.10
61109;BME280;46995;55.740;37.402;2022-09-19T07:43:48;96794.38;;;11.67;70.98
61109;BME280;46995;55.740;37.402;2022-09-19T07:46:32;96812.25;;;11.71;71.86
61109;BME280;46995;55.740;37.402;2022-09-19T07:49:10;96814.06;;;11.64;72.14
61109;BME280;46995;55.740;37.402;2022-09-19T07:51:47;96836.66;;;11.73;72.90
61109;BME280;46995;55.740;37.402;2022-09-19T07:54:20;96786.66;;;11.39;71.50
61109;BME280;46995;55.740;37.402;2022-09-19T07:56:47;96815.94;;;11.44;71.23
61109;BME280;46995;55.740;37.402;2022-09-19T07:59:13;96796.00;;;11.41;70.83
61109;BME280;46995;55.740;37.402;2022-09-19T08:01:48;96821.19;;;11.64;69.95
61109;BME280;46995;55.740;37.402;2022-09-19T08:04:27;96804.13;;;11.53;70.23
61109;BME280;46995;55.740;37.402;2022-09-19T08:06:57;96835.63;;;11.55;70.23
61109;BME280;46995;55.740;37.402;2022-09-19T08:09:23;96809.44;;;11.40;70.29
61109;BME280;46995;55.740;37.402;2022-09-19T08:12:08;96832.16;;;11.41;69.53
61109;BME280;46995;55.740;37.402;2022-09-19T08:14:46;96825.09;;;11.35;69.73
61109;BME280;46995;55.740;37.402;2022-09-19T08:17:13;96812.06;;;11.27;69.74
61109;BME280;46995;55.740;37.402;2022-09-19T08:19:40;96821.59;;;11.41;69.31
61109;BME280;46995;55.740;37.402;2022-09-19T08:22:07;96818.75;;;11.36;69.18
61109;BME280;46995;55.740;37.402;2022-09-19T08:24:38;96817.75;;;11.50;68.93
61109;BME280;46995;55.740;37.402;2022-09-19T08:27:12;96817.13;;;11.48;69.20
61109;BME280;46995;55.740;37.402;2022-09-19T08:29:39;96825.25;;;11.53;69.40
61109;BME280;46995;55.740;37.402;2022-09-19T08:32:11;96837.06;;;11.51;69.60
61109;BME280;46995;55.740;37.402;2022-09-19T08:34:37;96817.34;;;11.46;70.06
61109;BME280;46995;55.740;37.402;2022-09-19T08:37:04;96824.66;;;11.38;70.20
61109;BME280;46995;55.740;37.402;2022-09-19T08:39:33;96831.38;;;11.40;70.46
61109;BME280;46995;55.740;37.402;2022-09-19T08:42:22;96835.25;;;11.44;71.13
61109;BME280;46995;55.740;37.402;2022-09-19T08:45:04;96827.50;;;11.43;70.64
61109;BME280;46995;55.740;37.402;2022-09-19T08:47:35;96802.91;;;11.36;69.67
61109;BME280;46995;55.740;37.402;2022-09-19T08:50:11;96802.91;;;11.36;69.00
61109;BME280;46995;55.740;37.402;2022-09-19T08:52:45;96815.94;;;11.51;68.71
61109;BME280;46995;55.740;37.402;2022-09-19T08:55:22;96825.28;;;11.60;69.02
61109;BME280;46995;55.740;37.402;2022-09-19T08:57:58;96825.69;;;11.76;68.73
61109;BME280;46995;55.740;37.402;2022-09-19T09:00:40;96814.09;;;11.77;68.23
61109;BME280;46995;55.740;37.402;2022-09-19T09:03:14;96808.97;;;11.69;67.87
61109;BME280;46995;55.740;37.402;2022-09-19T09:05:54;96817.16;;;11.74;68.52
61109;BME280;46995;55.740;37.402;2022-09-19T09:11:37;96830.97;;;11.76;68.54
61109;BME280;46995;55.740;37.402;2022-09-19T09:17:05;96848.06;;;11.80;68.89
61109;BME280;46995;55.740;37.402;2022-09-19T09:20:40;96861.44;;;11.72;70.02
61109;BME280;46995;55.740;37.402;2022-09-19T09:22:51;96857.78;;;11.47;70.96
61109;BME280;46995;55.740;37.402;2022-09-19T09:25:39;96876.09;;;11.48;71.89
61109;BME280;46995;55.740;37.402;2022-09-19T09:31:29;96847.19;;;11.21;73.12
61109;BME280;46995;55.740;37.402;2022-09-19T09:34:18;96852.91;;;11.18;73.71
61109;BME280;46995;55.740;37.402;2022-09-19T09:36:57;96849.63;;;11.16;73.83
61109;BME280;46995;55.740;37.402;2022-09-19T09:39:33;96868.97;;;11.23;73.90
61109;BME280;46995;55.740;37.402;2022-09-19T09:42:20;96872.44;;;11.30;73.81
61109;BME280;46995;55.740;37.402;2022-09-19T09:44:59;96868.56;;;11.39;74.30
61109;BME280;46995;55.740;37.402;2022-09-19T09:47:56;96859.63;;;11.40;74.15
61109;BME280;46995;55.740;37.402;2022-09-19T09:53:21;96867.34;;;11.55;73.76
61109;BME280;46995;55.740;37.402;2022-09-19T10:01:58;96863.09;;;11.67;72.74
61109;BME280;46995;55.740;37.402;2022-09-19T10:04:54;96864.91;;;11.53;72.58
61109;BME280;46995;55.740;37.402;2022-09-19T10:10:18;96859.84;;;11.45;73.23
61109;BME280;46995;55.740;37.402;2022-09-19T10:12:52;96854.16;;;11.35;73.95
61109;BME280;46995;55.740;37.402;2022-09-19T10:15:24;96876.09;;;11.29;74.62
61109;BME280;46995;55.740;37.402;2022-09-19T10:18:06;96861.84;;;11.17;75.04
61109;BME280;46995;55.740;37.402;2022-09-19T10:20:48;96865.06;;;11.05;75.55
61109;BME280;46995;55.740;37.402;2022-09-19T10:23:28;96852.06;;;10.97;75.21
61109;BME280;46995;55.740;37.402;2022-09-19T10:26:00;96868.72;;;11.04;75.93
61109;BME280;46995;55.740;37.402;2022-09-19T10:28:36;96853.84;;;10.90;76.89
61109;BME280;46995;55.740;37.402;2022-09-19T10:31:40;96846.94;;;10.76;76.79
61109;BME280;46995;55.740;37.402;2022-09-19T10:34:29;96874.75;;;10.85;77.33
61109;BME280;46995;55.740;37.402;2022-09-19T10:37:03;96846.72;;;10.71;77.44
61109;BME280;46995;55.740;37.402;2022-09-19T10:39:41;96864.00;;;10.80;78.43
61109;BME280;46995;55.740;37.402;2022-09-19T10:45:00;96849.28;;;10.58;78.81
61109;BME280;46995;55.740;37.402;2022-09-19T10:47:28;96835.28;;;10.51;78.87
61109;BME280;46995;55.740;37.402;2022-09-19T10:50:15;96841.78;;;10.55;79.39
61109;BME280;46995;55.740;37.402;2022-09-19T10:52:50;96822.31;;;10.56;78.85
61109;BME280;46995;55.740;37.402;2022-09-19T10:55:22;96844.41;;;10.55;78.86
61109;BME280;46995;55.740;37.402;2022-09-19T10:57:55;96836.47;;;10.48;79.32
61109;BME280;46995;55.740;37.402;2022-09-19T11:00:32;96847.06;;;10.55;79.90
61109;BME280;46995;55.740;37.402;2022-09-19T11:03:34;96844.63;;;10.60;80.23
61109;BME280;46995;55.740;37.402;2022-09-19T11:06:21;96842.81;;;10.60;79.86
61109;BME280;46995;55.740;37.402;2022-09-19T11:08:52;96844.63;;;10.60;79.47
61109;BME280;46995;55.740;37.402;2022-09-19T11:11:41;96850.69;;;10.54;79.79
61109;BME280;46995;55.740;37.402;2022-09-19T11:14:26;96833.19;;;10.40;80.79
61109;BME280;46995;55.740;37.402;2022-09-19T11:26:23;96832.75;;;10.30;81.47
61109;BME280;46995;55.740;37.402;2022-09-19T11:29:29;96802.81;;;10.09;82.64
61109;BME280;46995;55.740;37.402;2022-09-19T11:32:46;96830.09;;;10.23;82.70
61109;BME280;46995;55.740;37.402;2022-09-19T11:41:04;96836.28;;;10.15;82.53
61109;BME280;46995;55.740;37.402;2022-09-19T11:44:00;96850.00;;;10.26;82.19
61109;BME280;46995;55.740;37.402;2022-09-19T11:46:55;96838.78;;;10.17;82.22
61109;BME280;46995;55.740;37.402;2022-09-19T11:49:45;96834.31;;;10.17;82.72
61109;BME280;46995;55.740;37.402;2022-09-19T11:55:16;96844.47;;;10.20;82.73
61109;BME280;46995;55.740;37.402;2022-09-19T12:00:22;96846.91;;;10.22;82.65
61109;BME280;46995;55.740;37.402;2022-09-19T12:11:48;96850.03;;;10.04;83.93
61109;BME280;46995;55.740;37.402;2022-09-19T12:14:31;96852.44;;;9.99;82.99
61109;BME280;46995;55.740;37.402;2022-09-19T12:17:04;96857.91;;;9.98;83.91
61109;BME280;46995;55.740;37.402;2022-09-19T12:19:44;96855.56;;;9.82;84.19
61109;BME280;46995;55.740;37.402;2022-09-19T12:22:15;96865.34;;;9.88;84.55
61109;BME280;46995;55.740;37.402;2022-09-19T12:30:17;96868.66;;;9.68;84.80
61109;BME280;46995;55.740;37.402;2022-09-19T12:38:46;96870.28;;;9.69;84.60
61109;BME280;46995;55.740;37.402;2022-09-19T12:41:50;96892.06;;;9.85;84.56
61109;BME280;46995;55.740;37.402;2022-09-19T12:44:45;96882.81;;;9.89;84.24
61109;BME280;46995;55.740;37.402;2022-09-19T12:50:49;96871.38;;;9.82;83.76
61109;BME280;46995;55.740;37.402;2022-09-19T12:53:52;96880.88;;;9.76;83.85
61109;BME280;46995;55.740;37.402;2022-09-19T12:56:38;96905.94;;;9.93;83.73
61109;BME280;46995;55.740;37.402;2022-09-19T12:59:20;96895.34;;;9.87;84.18
61109;BME280;46995;55.740;37.402;2022-09-19T13:07:05;96877.31;;;9.90;83.83
61109;BME280;46995;55.740;37.402;2022-09-19T13:18:01;96892.88;;;9.78;84.00
61109;BME280;46995;55.740;37.402;2022-09-19T13:20:46;96909.72;;;9.84;84.14
61109;BME280;46995;55.740;37.402;2022-09-19T13:23:33;96916.63;;;9.85;84.32
61109;BME280;46995;55.740;37.402;2022-09-19T13:28:53;96911.09;;;9.80;84.59
61109;BME280;46995;55.740;37.402;2022-09-19T13:31:24;96914.63;;;9.87;84.51
61109;BME280;46995;55.740;37.402;2022-09-19T13:33:54;96929.03;;;9.91;84.62
61109;BME280;46995;55.740;37.402;2022-09-19T13:38:52;96950.53;;;9.88;84.67
61109;BME280;46995;55.740;37.402;2022-09-19T13:46:52;96950.06;;;9.85;84.60
61109;BME280;46995;55.740;37.402;2022-09-19T13:49:25;96948.47;;;9.84;84.50
61109;BME280;46995;55.740;37.402;2022-09-19T13:52:02;96946.38;;;9.79;84.74
61109;BME280;46995;55.740;37.402;2022-09-19T13:54:57;96975.59;;;9.84;84.72
61109;BME280;46995;55.740;37.402;2022-09-19T13:57:30;96961.66;;;9.84;84.80
61109;BME280;46995;55.740;37.402;2022-09-19T14:00:08;96965.03;;;9.77;84.93
61109;BME280;46995;55.740;37.402;2022-09-19T14:02:41;96954.44;;;9.71;84.72
61109;BME280;46995;55.740;37.402;2022-09-19T14:08:00;96960.44;;;9.65;85.76
61109;BME280;46995;55.740;37.402;2022-09-19T14:21:06;96990.56;;;9.77;85.36
61109;BME280;46995;55.740;37.402;2022-09-19T14:40:18;96998.59;;;9.90;85.60
61109;BME280;46995;55.740;37.402;2022-09-19T14:46:14;97002.50;;;9.94;85.19
61109;BME280;46995;55.740;37.402;2022-09-19T14:51:34;97010.13;;;9.89;84.28
61109;BME280;46995;55.740;37.402;2022-09-19T14:57:02;97025.44;;;10.00;83.90
61109;BME280;46995;55.740;37.402;2022-09-19T14:59:30;97033.34;;;10.00;84.01
61109;BME280;46995;55.740;37.402;2022-09-19T15:02:21;97016.66;;;9.93;84.05
61109;BME280;46995;55.740;37.402;2022-09-19T15:05:00;97021.44;;;9.83;84.01
61109;BME280;46995;55.740;37.402;2022-09-19T15:07:31;97005.13;;;9.73;84.12
61109;BME280;46995;55.740;37.402;2022-09-19T15:09:57;97042.66;;;9.96;84.55
61109;BME280;46995;55.740;37.402;2022-09-19T15:12:29;97059.28;;;9.97;84.40
61109;BME280;46995;55.740;37.402;2022-09-19T15:14:59;97063.75;;;9.96;84.19
61109;BME280;46995;55.740;37.402;2022-09-19T15:17:33;97049.31;;;9.92;84.77
61109;BME280;46995;55.740;37.402;2022-09-19T15:22:56;97056.28;;;9.78;85.06
61109;BME280;46995;55.740;37.402;2022-09-19T15:25:27;97060.78;;;9.85;84.93
61109;BME280;46995;55.740;37.402;2022-09-19T15:27:58;97081.63;;;9.79;85.12
61109;BME280;46995;55.740;37.402;2022-09-19T15:30:30;97073.66;;;9.73;85.23
61109;BME280;46995;55.740;37.402;2022-09-19T15:33:05;97084.06;;;9.81;85.34
61109;BME280;46995;55.740;37.402;2022-09-19T15:35:45;97068.13;;;9.68;85.60
61109;BME280;46995;55.740;37.402;2022-09-19T15:38:18;97094.09;;;9.71;85.59
61109;BME280;46995;55.740;37.402;2022-09-19T15:40:47;97080.75;;;9.58;85.63
61109;BME280;46995;55.740;37.402;2022-09-19T15:43:13;97086.03;;;9.58;85.38
61109;BME280;46995;55.740;37.402;2022-09-19T15:45:43;97105.63;;;9.70;85.63
61109;BME280;46995;55.740;37.402;2022-09-19T15:51:03;97119.06;;;9.75;85.86
61109;BME280;46995;55.740;37.402;2022-09-19T15:53:37;97122.09;;;9.72;85.80
61109;BME280;46995;55.740;37.402;2022-09-19T15:56:07;97127.09;;;9.67;85.64
61109;BME280;46995;55.740;37.402;2022-09-19T15:58:45;97110.03;;;9.63;85.35
61109;BME280;46995;55.740;37.402;2022-09-19T16:03:50;97129.91;;;9.65;85.49
61109;BME280;46995;55.740;37.402;2022-09-19T16:06:37;97159.59;;;9.74;85.81
61109;BME280;46995;55.740;37.402;2022-09-19T16:09:42;97161.34;;;9.82;85.54
61109;BME280;46995;55.740;37.402;2022-09-19T16:14:54;97168.34;;;9.74;85.22
61109;BME280;46995;55.740;37.402;2022-09-19T16:17:22;97164.81;;;9.67;85.50
61109;BME280;46995;55.740;37.402;2022-09-19T16:19:52;97180.53;;;9.61;86.06
61109;BME280;46995;55.740;37.402;2022-09-19T16:22:22;97195.25;;;9.70;86.17
61109;BME280;46995;55.740;37.402;2022-09-19T16:24:52;97208.16;;;9.65;86.81
61109;BME280;46995;55.740;37.402;2022-09-19T16:27:22;97200.81;;;9.60;87.09
61109;BME280;46995;55.740;37.402;2022-09-19T16:29:53;97219.41;;;9.59;86.95
61109;BME280;46995;55.740;37.402;2022-09-19T16:32:20;97211.97;;;9.48;87.05
61109;BME280;46995;55.740;37.402;2022-09-19T16:34:56;97235.22;;;9.59;86.69